createdAt,value
2018-02-06T00:02:08.048Z,96566.72
2018-02-06T00:04:33.982Z,96561.05
2018-02-06T00:07:03.581Z,96560.69
2018-02-06T00:09:29.509Z,96560.51
2018-02-06T00:11:58.995Z,96557.16
2018-02-06T00:14:24.903Z,96552.16
2018-02-06T00:16:52.304Z,96553.19
2018-02-06T00:19:18.250Z,96556.52
2018-02-06T00:21:47.308Z,96547.73
2018-02-06T00:24:13.204Z,96544.98
2018-02-06T00:26:39.123Z,96539.09
2018-02-06T00:29:05.043Z,96541.69
2018-02-06T00:31:30.967Z,96543.09
2018-02-06T00:34:00.080Z,96539.04
2018-02-06T00:36:26.004Z,96535.66
2018-02-06T00:38:55.140Z,96533.37
2018-02-06T00:41:21.088Z,96522.60
2018-02-06T00:43:48.329Z,96523.58
2018-02-06T00:46:14.331Z,96520.06
2018-02-06T00:48:43.516Z,96522.60
2018-02-06T00:51:09.422Z,96517.60
2018-02-06T00:53:38.734Z,96514.50
2018-02-06T00:56:04.669Z,96517.87
2018-02-06T00:58:33.951Z,96519.67
2018-02-06T01:00:59.876Z,96512.18
2018-02-06T01:03:25.823Z,96510.03
2018-02-06T01:05:51.728Z,96499.25
2018-02-06T01:08:17.644Z,96503.82
2018-02-06T01:10:44.043Z,96495.44
2018-02-06T01:13:09.996Z,96494.41
2018-02-06T01:15:40.101Z,96480.87
2018-02-06T01:18:05.998Z,96477.88
2018-02-06T01:20:35.155Z,96478.05
2018-02-06T01:23:01.076Z,96473.69
2018-02-06T01:25:30.258Z,96471.39
2018-02-06T01:27:56.186Z,96470.39
2018-02-06T01:30:23.226Z,96466.87
2018-02-06T01:32:49.149Z,96463.77
2018-02-06T01:35:18.314Z,96447.48
2018-02-06T01:37:44.263Z,96454.81
2018-02-06T01:40:10.168Z,96460.77
2018-02-06T01:42:36.095Z,96456.84
2018-02-06T01:45:02.024Z,96456.70
2018-02-06T01:47:31.011Z,96466.33
2018-02-06T01:50:04.210Z,96464.19
2018-02-06T01:52:30.165Z,96458.19
2018-02-06T01:54:56.067Z,96455.27
2018-02-06T01:57:21.979Z,96448.89
2018-02-06T01:59:47.914Z,96439.91
2018-02-06T02:02:13.833Z,96439.20
2018-02-06T02:04:39.762Z,96437.10
2018-02-06T02:07:09.259Z,96429.30
2018-02-06T02:09:35.182Z,96424.06
2018-02-06T02:12:04.724Z,96426.05
2018-02-06T02:14:30.635Z,96414.89
2018-02-06T02:16:56.564Z,96415.83
2018-02-06T02:19:22.524Z,96413.24
2018-02-06T02:21:48.442Z,96412.91
2018-02-06T02:24:14.615Z,96404.22
2018-02-06T02:26:40.519Z,96406.97
2018-02-06T02:29:09.212Z,96396.80
2018-02-06T02:31:35.135Z,96392.22
2018-02-06T02:34:04.013Z,96378.85
2018-02-06T02:36:29.923Z,96384.91
2018-02-06T02:38:58.976Z,96380.95
2018-02-06T02:41:24.876Z,96378.76
2018-02-06T04:41:32.006Z,96290.66
2018-02-06T04:43:57.964Z,96285.67
2018-02-06T04:46:23.879Z,96282.37
2018-02-06T04:48:49.824Z,96283.36
2018-02-06T04:51:15.737Z,96279.25
2018-02-06T04:53:41.654Z,96275.05
2018-02-06T04:56:11.295Z,96272.86
2018-02-06T04:58:37.233Z,96272.31
2018-02-06T05:01:07.231Z,96270.76
2018-02-06T05:03:33.144Z,96266.56
2018-02-06T05:06:00.376Z,96261.02
2018-02-06T05:08:26.283Z,96258.10
2018-02-06T05:10:55.529Z,96258.34
2018-02-06T05:13:21.430Z,96250.92
2018-02-06T05:15:50.576Z,96249.65
2018-02-06T05:18:16.525Z,96248.70
2018-02-06T05:20:42.426Z,96237.77
2018-02-06T05:23:08.347Z,96235.64
2018-02-06T05:25:34.262Z,96231.97
2018-02-06T05:28:01.890Z,96229.30
2018-02-06T05:30:27.836Z,96239.38
2018-02-06T05:32:57.274Z,96229.75
2018-02-06T05:35:23.214Z,96228.41
2018-02-06T05:37:52.428Z,96222.19
2018-02-06T05:40:18.322Z,96221.66
2018-02-06T05:42:45.585Z,96217.95
2018-02-06T05:45:11.495Z,96213.97
2018-02-06T05:47:40.698Z,96211.23
2018-02-06T05:50:06.666Z,96211.70
2018-02-06T05:52:35.890Z,96202.63
2018-02-06T05:55:01.787Z,96203.73
2018-02-06T05:57:27.722Z,96205.69
2018-02-06T05:59:53.634Z,96194.81
2018-02-06T06:02:19.561Z,96192.81
2018-02-06T06:04:47.206Z,96189.94
2018-02-06T06:07:13.131Z,96192.00
2018-02-06T06:09:42.490Z,96186.73
2018-02-06T06:12:08.415Z,96181.20
2018-02-06T06:14:35.841Z,96184.50
2018-02-06T06:17:01.781Z,96186.49
2018-02-06T06:19:30.930Z,96180.77
2018-02-06T06:21:56.864Z,96180.84
2018-02-06T06:24:26.332Z,96177.81
2018-02-06T06:26:52.260Z,96176.13
2018-02-06T06:29:21.398Z,96180.02
2018-02-06T06:31:47.292Z,96175.86
2018-02-06T06:34:13.267Z,96175.93
2018-02-06T06:36:39.172Z,96177.09
2018-02-06T06:39:05.122Z,96175.55
2018-02-06T06:41:32.200Z,96174.46
2018-02-06T06:43:58.095Z,96173.97
2018-02-06T06:46:27.528Z,96173.72
2018-02-06T06:48:53.444Z,96172.22
2018-02-06T06:51:22.832Z,96174.91
2018-02-06T06:53:48.736Z,96169.80
2018-02-06T06:56:16.568Z,96173.31
2018-02-06T06:58:42.501Z,96175.24
2018-02-06T07:01:12.285Z,96176.20
2018-02-06T07:03:38.216Z,96165.34
2018-02-06T07:06:05.825Z,96171.08
2018-02-06T07:08:31.760Z,96165.80
2018-02-06T07:10:57.675Z,96179.05
2018-02-06T07:13:23.567Z,96168.42
2018-02-06T07:15:49.496Z,96171.86
2018-02-06T07:18:17.151Z,96175.23
2018-02-06T07:23:12.146Z,96165.27
2018-02-06T07:25:38.069Z,96165.44
2018-02-06T07:28:07.335Z,96164.05
2018-02-06T07:30:33.317Z,96164.41
2018-02-06T07:33:02.260Z,96161.28
2018-02-06T07:35:28.175Z,96166.55
2018-02-06T07:37:57.540Z,96164.41
2018-02-06T07:40:23.484Z,96160.09
2018-02-06T07:42:50.933Z,96158.56
2018-02-06T07:45:16.965Z,96155.38
2018-02-06T07:47:43.014Z,96148.09
2018-02-06T07:50:09.076Z,96147.92
2018-02-06T07:52:35.137Z,96147.24
2018-02-06T07:55:02.449Z,96151.47
2018-02-06T07:57:28.379Z,96162.25
2018-02-06T07:59:57.169Z,96156.84
2018-02-06T08:02:23.095Z,96151.02
2018-02-06T08:04:52.473Z,96150.34
2018-02-06T08:07:18.405Z,96151.40
2018-02-06T08:09:47.524Z,96153.74
2018-02-06T08:12:13.436Z,96151.13
2018-02-06T08:14:42.534Z,96151.89
2018-02-06T08:17:08.550Z,96147.89
2018-02-06T08:19:37.741Z,96154.09
2018-02-06T08:22:03.652Z,96146.37
2018-02-06T08:24:29.692Z,96140.80
2018-02-06T08:26:55.621Z,96136.58
2018-02-06T08:29:21.532Z,96132.27
2018-02-06T08:31:48.033Z,96130.13
2018-02-06T08:34:13.943Z,96122.77
2018-02-06T08:36:43.106Z,96126.14
2018-02-06T08:39:09.029Z,96123.17
2018-02-06T08:41:38.386Z,96128.87
2018-02-06T08:44:04.316Z,96129.56
2018-02-06T08:46:33.700Z,96124.98
2018-02-06T08:48:59.638Z,96123.80
2018-02-06T08:51:26.620Z,96116.79
2018-02-06T08:53:52.533Z,96109.59
2018-02-06T08:56:21.461Z,96118.50
2018-02-06T08:58:47.384Z,96117.53
2018-02-06T09:01:13.355Z,96116.56
2018-02-06T09:03:39.267Z,96112.69
2018-02-06T09:06:05.176Z,96110.11
2018-02-06T09:08:33.162Z,96110.69
2018-02-06T09:10:59.364Z,96106.58
2018-02-06T09:13:29.045Z,96097.38
2018-02-06T09:15:54.970Z,96100.38
2018-02-06T09:18:25.917Z,96094.86
2018-02-06T09:20:52.182Z,96097.30
2018-02-06T09:23:18.098Z,96097.16
2018-02-06T09:25:44.024Z,96099.34
2018-02-06T09:28:13.123Z,96087.30
2018-02-06T09:30:39.055Z,96097.89
2018-02-06T09:33:09.485Z,96096.94
2018-02-06T09:35:35.432Z,96103.09
2018-02-06T09:38:01.331Z,96106.65
2018-02-06T09:40:27.246Z,96098.52
2018-02-06T09:42:53.189Z,96090.58
2018-02-06T09:45:19.132Z,96092.00
2018-02-06T09:47:45.063Z,96094.23
2018-02-06T09:50:14.187Z,96085.66
2018-02-06T09:52:40.161Z,96081.98
2018-02-06T09:55:09.443Z,96087.09
2018-02-06T09:57:35.357Z,96081.81
2018-02-06T10:00:02.576Z,96084.71
2018-02-06T10:02:28.492Z,96088.42
2018-02-06T10:04:58.073Z,96083.95
2018-02-06T10:07:24.025Z,96089.55
2018-02-06T10:09:53.471Z,96089.27
2018-02-06T10:12:19.416Z,96081.55
2018-02-06T10:14:45.354Z,96074.35
2018-02-06T10:17:11.322Z,96075.77
2018-02-06T10:19:37.224Z,96077.94
2018-02-06T10:22:03.745Z,96074.81
2018-02-06T10:24:29.693Z,96077.18
2018-02-06T10:26:59.767Z,96074.66
2018-02-06T10:29:25.733Z,96069.70
2018-02-06T10:31:54.788Z,96068.50
2018-02-06T10:34:20.712Z,96063.87
2018-02-06T10:36:48.151Z,96066.06
2018-02-06T10:39:14.076Z,96063.72
2018-02-06T10:41:43.311Z,96061.83
2018-02-06T10:44:09.235Z,96055.72
2018-02-06T10:46:38.468Z,96051.23
2018-02-06T10:49:04.405Z,96045.41
2018-02-06T10:51:30.308Z,96041.06
2018-02-06T10:53:56.239Z,96031.88
2018-02-06T10:56:22.171Z,96034.03
2018-02-06T10:58:49.101Z,96026.69
2018-02-06T11:01:14.986Z,96030.58
2018-02-06T11:03:43.851Z,96023.01
2018-02-06T11:06:09.741Z,96021.23
2018-02-06T11:08:39.147Z,96015.34
2018-02-06T11:11:05.076Z,96006.13
2018-02-06T11:13:34.829Z,96005.27
2018-02-06T11:16:00.846Z,96004.46
2018-02-06T11:18:27.863Z,96003.28
2018-02-06T11:20:53.804Z,95997.90
2018-02-06T11:23:22.938Z,95993.17
2018-02-06T11:25:48.868Z,95991.18
2018-02-06T11:28:14.767Z,95996.30
2018-02-06T11:30:40.730Z,95996.01
2018-02-06T11:33:07.617Z,95994.75
2018-02-06T11:35:34.546Z,95985.98
2018-02-06T11:38:00.464Z,95984.31
2018-02-06T11:40:29.808Z,95979.20
2018-02-06T11:42:55.730Z,95977.09
2018-02-06T11:45:23.540Z,95971.94
2018-02-06T11:47:49.801Z,95966.72
2018-02-06T11:50:18.521Z,95958.08
2018-02-06T11:52:44.456Z,95949.31
2018-02-06T11:55:13.354Z,95939.44
2018-02-06T11:57:39.295Z,95942.96
2018-02-06T12:00:08.100Z,95941.22
2018-02-06T12:02:34.127Z,95934.48
2018-02-06T12:05:00.037Z,95935.29
2018-02-06T12:07:25.955Z,95916.77
2018-02-06T12:09:51.886Z,95928.39
2018-02-06T12:12:19.737Z,95926.84
2018-02-06T12:14:45.667Z,95921.64
2018-02-06T12:17:14.768Z,95920.26
2018-02-06T12:19:40.690Z,95911.03
2018-02-06T12:22:10.123Z,95917.93
2018-02-06T12:24:36.041Z,95913.46
2018-02-06T12:27:05.461Z,95912.66
2018-02-06T12:29:31.419Z,95903.75
2018-02-06T12:31:59.047Z,95897.95
2018-02-06T12:34:24.958Z,95895.20
2018-02-06T12:36:54.085Z,95882.61
2018-02-06T12:39:20.001Z,95882.03
2018-02-06T12:41:45.911Z,95880.73
2018-02-06T12:44:11.823Z,95886.67
2018-02-06T12:46:37.771Z,95886.98
2018-02-06T12:49:05.640Z,95879.03
2018-02-06T12:51:31.569Z,95879.28
2018-02-06T12:54:00.784Z,95868.02
2018-02-06T12:56:26.683Z,95853.45
2018-02-06T12:58:55.985Z,95860.84
2018-02-06T13:01:21.881Z,95861.85
2018-02-06T13:03:49.002Z,95865.61
2018-02-06T13:06:14.923Z,95861.35
2018-02-06T13:08:43.679Z,95860.34
2018-02-06T13:11:09.575Z,95857.55
2018-02-06T13:13:39.143Z,95854.45
2018-02-06T13:16:05.091Z,95863.55
2018-02-06T13:18:31.061Z,95864.43
2018-02-06T13:20:57.002Z,95851.88
2018-02-06T13:23:23.113Z,95846.22
2018-02-06T13:25:51.063Z,95834.41
2018-02-06T13:28:16.990Z,95829.02
2018-02-06T13:30:46.062Z,95823.20
2018-02-06T13:33:11.993Z,95811.71
2018-02-06T13:35:39.544Z,95821.11
2018-02-06T13:38:05.487Z,95821.66
2018-02-06T13:40:34.915Z,95814.59
2018-02-06T13:43:00.831Z,95808.06
2018-02-06T13:45:30.469Z,95812.45
2018-02-06T13:47:56.731Z,95814.34
2018-02-06T13:50:23.730Z,95801.16
2018-02-06T13:52:49.682Z,95801.72
2018-02-06T13:55:15.591Z,95805.82
2018-02-06T13:57:46.483Z,95802.19
2018-02-06T14:00:12.447Z,95802.91
2018-02-06T14:02:38.404Z,95804.83
2018-02-06T14:05:04.436Z,95805.88
2018-02-06T14:07:30.379Z,95817.84
2018-02-06T14:09:56.324Z,95811.94
2018-02-06T14:12:25.842Z,95822.77
2018-02-06T14:14:52.169Z,95820.98
2018-02-06T14:17:19.908Z,95821.50
2018-02-06T14:19:45.844Z,95807.70
2018-02-06T14:22:15.404Z,95812.80
2018-02-06T14:24:41.336Z,95811.95
2018-02-06T14:27:10.362Z,95809.39
2018-02-06T14:29:36.297Z,95809.91
2018-02-06T14:32:02.243Z,95812.25
2018-02-06T14:34:28.249Z,95816.71
2018-02-06T14:36:54.196Z,95809.60
2018-02-06T14:39:21.407Z,95808.67
2018-02-06T14:41:47.363Z,95805.42
2018-02-06T14:44:16.768Z,95805.37
2018-02-06T14:46:42.706Z,95806.12
2018-02-06T14:49:10.303Z,95804.98
2018-02-06T14:51:36.236Z,95805.48
2018-02-06T14:54:06.220Z,95806.71
2018-02-06T14:56:32.176Z,95806.73
2018-02-06T14:58:59.997Z,95807.34
2018-02-06T15:01:25.944Z,95811.36
2018-02-06T15:03:56.236Z,95810.59
2018-02-06T15:06:22.189Z,95815.42
2018-02-06T15:08:49.096Z,95809.68
2018-02-06T15:11:15.011Z,95818.26
2018-02-06T15:13:40.951Z,95812.03
2018-02-06T15:16:07.563Z,95805.91
2018-02-06T15:18:33.489Z,95806.10
2018-02-06T15:21:02.540Z,95808.37
2018-02-06T15:23:28.490Z,95805.72
2018-02-06T15:25:55.832Z,95800.81
2018-02-06T15:28:21.801Z,95800.92
2018-02-06T15:30:50.848Z,95809.42
2018-02-06T15:33:16.780Z,95813.30
2018-02-06T15:35:45.928Z,95808.32
2018-02-06T15:38:11.855Z,95809.86
2018-02-06T15:40:39.739Z,95808.68
2018-02-06T15:43:05.711Z,95813.06
2018-02-06T15:45:31.631Z,95809.52
2018-02-06T15:47:58.256Z,95812.47
2018-02-06T15:50:24.228Z,95812.85
2018-02-06T15:52:52.372Z,95817.33
2018-02-06T15:55:18.330Z,95810.64
2018-02-06T15:57:45.960Z,95814.61
2018-02-06T16:00:11.907Z,95814.63
2018-02-06T16:02:41.481Z,95814.69
2018-02-06T16:05:07.392Z,95816.37
2018-02-06T16:07:37.135Z,95815.82
2018-02-06T16:10:03.128Z,95807.88
2018-02-06T16:12:30.531Z,95808.85
2018-02-06T16:14:56.455Z,95812.08
2018-02-06T16:17:25.794Z,95803.75
2018-02-06T16:19:51.701Z,95805.41
2018-02-06T16:22:17.635Z,95816.41
2018-02-06T16:24:43.572Z,95821.67
2018-02-06T16:27:09.583Z,95820.94
2018-02-06T16:29:36.926Z,95819.44
2018-02-06T16:32:02.816Z,95819.41
2018-02-06T16:34:32.092Z,95818.26
2018-02-06T16:36:58.031Z,95818.97
2018-02-06T16:39:27.190Z,95818.45
2018-02-06T16:41:53.145Z,95815.05
2018-02-06T16:44:22.257Z,95824.16
2018-02-06T16:46:48.177Z,95823.31
2018-02-06T16:49:17.238Z,95825.80
2018-02-06T16:51:43.142Z,95826.90
2018-02-06T16:54:10.420Z,95825.52
2018-02-06T16:56:36.332Z,95830.45
2018-02-06T16:59:02.272Z,95830.70
2018-02-06T17:01:28.997Z,95831.31
2018-02-06T17:03:54.894Z,95830.59
2018-02-06T17:06:22.104Z,95841.75
2018-02-06T17:08:48.060Z,95831.68
2018-02-06T17:11:17.416Z,95830.13
2018-02-06T17:13:43.313Z,95827.13
2018-02-06T17:16:12.481Z,95830.48
2018-02-06T17:18:38.417Z,95828.06
2018-02-06T17:21:06.358Z,95829.77
2018-02-06T17:23:32.290Z,95829.89
2018-02-06T17:26:01.163Z,95822.41
2018-02-06T17:28:27.097Z,95826.58
2018-02-06T17:30:56.545Z,95826.81
2018-02-06T17:33:22.455Z,95823.00
2018-02-06T17:35:48.384Z,95820.80
2018-02-06T17:38:14.304Z,95820.64
2018-02-06T17:40:40.240Z,95814.92
2018-02-06T17:43:07.663Z,95818.14
2018-02-06T17:45:33.579Z,95817.83
2018-02-06T17:48:03.116Z,95828.33
2018-02-06T17:50:29.080Z,95824.59
2018-02-06T17:52:58.099Z,95824.48
2018-02-06T17:55:24.012Z,95833.64
2018-02-06T17:57:53.172Z,95829.02
2018-02-06T18:00:19.135Z,95823.67
2018-02-06T18:02:46.648Z,95826.84
2018-02-06T18:05:12.649Z,95824.73
2018-02-06T18:07:41.830Z,95826.45
2018-02-06T18:10:07.818Z,95828.12
2018-02-06T18:12:33.741Z,95828.73
2018-02-06T18:14:59.648Z,95829.47
2018-02-06T18:17:25.609Z,95831.94
2018-02-06T18:19:54.632Z,95822.41
2018-02-06T18:22:20.553Z,95820.14
2018-02-06T18:24:48.001Z,95823.41
2018-02-06T18:27:13.908Z,95817.64
2018-02-06T18:29:43.162Z,95822.52
2018-02-06T18:32:09.108Z,95825.52
2018-02-06T18:34:38.797Z,95825.67
2018-02-06T18:37:04.768Z,95823.68
2018-02-06T18:39:31.950Z,95827.54
2018-02-06T18:41:57.874Z,95834.21
2018-02-06T18:44:26.723Z,95833.52
2018-02-06T18:46:52.659Z,95827.10
2018-02-06T18:49:18.587Z,95832.66
2018-02-06T18:51:44.535Z,95827.20
2018-02-06T18:54:10.467Z,95829.34
2018-02-06T18:56:38.024Z,95835.31
2018-02-06T18:59:03.926Z,95831.35
2018-02-06T19:01:32.806Z,95832.80
2018-02-06T19:03:58.743Z,95833.91
2018-02-06T19:06:27.700Z,95830.77
2018-02-06T19:08:53.624Z,95826.61
2018-02-06T19:11:22.773Z,95831.98
2018-02-06T19:13:48.722Z,95831.47
2018-02-06T19:16:17.935Z,95830.02
2018-02-06T19:18:43.860Z,95831.34
2018-02-06T19:21:12.883Z,95829.26
2018-02-06T19:23:38.851Z,95821.17
2018-02-06T19:26:04.777Z,95822.59
2018-02-06T19:28:30.746Z,95822.31
2018-02-06T19:30:56.659Z,95825.41
2018-02-06T19:33:24.094Z,95830.34
2018-02-06T19:35:50.020Z,95819.06
2018-02-06T19:38:19.316Z,95830.04
2018-02-06T19:40:45.248Z,95825.83
2018-02-06T19:43:14.581Z,95824.16
2018-02-06T19:45:55.451Z,95827.22
2018-02-06T19:48:22.360Z,95820.41
2018-02-06T19:50:48.287Z,95828.12
2018-02-06T19:53:14.229Z,95820.56
2018-02-06T19:55:40.176Z,95822.91
2018-02-06T19:58:06.097Z,95822.48
2018-02-06T20:00:32.056Z,95823.71
2018-02-06T20:02:57.968Z,95820.97
2018-02-06T20:05:23.922Z,95815.80
2018-02-06T20:07:49.860Z,95823.13
2018-02-06T20:10:15.800Z,95816.42
2018-02-06T20:12:41.749Z,95820.38
2018-02-06T20:15:07.650Z,95822.75
2018-02-06T20:17:33.592Z,95824.19
2018-02-06T20:19:59.507Z,95822.10
2018-02-06T20:22:25.439Z,95823.19
2018-02-06T20:24:53.140Z,95823.98
2018-02-06T20:27:19.056Z,95820.91
2018-02-06T20:29:48.143Z,95822.76
2018-02-06T20:32:14.079Z,95816.07
2018-02-06T20:34:43.919Z,95819.58
2018-02-06T20:37:09.906Z,95822.95
2018-02-06T20:39:35.861Z,95830.64
2018-02-06T20:42:01.776Z,95831.69
2018-02-06T20:44:27.703Z,95826.70
2018-02-06T20:46:54.366Z,95824.91
2018-02-06T20:49:20.303Z,95832.07
2018-02-06T20:51:49.730Z,95820.97
2018-02-06T20:54:15.652Z,95819.34
2018-02-06T20:56:45.048Z,95827.09
2018-02-06T20:59:10.990Z,95821.48
2018-02-06T21:01:38.357Z,95822.05
2018-02-06T21:04:04.278Z,95819.53
2018-02-06T21:06:33.687Z,95815.41
2018-02-06T21:08:59.612Z,95816.01
2018-02-06T21:11:29.028Z,95817.34
2018-02-06T21:13:54.940Z,95820.41
2018-02-06T21:16:20.862Z,95820.00
2018-02-06T21:18:47.659Z,95824.02
2018-02-06T21:21:13.590Z,95816.70
2018-02-06T21:23:39.536Z,95816.54
2018-02-06T21:26:05.993Z,95819.36
2018-02-06T21:28:35.983Z,95823.48
2018-02-06T21:31:01.931Z,95822.63
2018-02-06T21:33:28.983Z,95822.45
2018-02-06T21:35:54.929Z,95828.85
2018-02-06T21:38:23.985Z,95827.14
2018-02-06T21:40:49.907Z,95830.13
2018-02-06T21:43:19.174Z,95816.28
2018-02-06T21:45:45.078Z,95823.82
2018-02-06T21:48:14.514Z,95820.06
2018-02-06T21:50:40.463Z,95808.82
2018-02-06T21:53:06.375Z,95810.82
2018-02-06T21:55:32.297Z,95805.31
2018-02-06T21:57:58.239Z,95806.20
2018-02-06T22:00:25.156Z,95807.78
2018-02-06T22:02:51.094Z,95801.28
2018-02-06T22:05:20.221Z,95804.14
2018-02-06T22:07:46.195Z,95801.86
2018-02-06T22:10:15.976Z,95803.61
2018-02-06T22:12:41.921Z,95808.36
2018-02-06T22:15:09.140Z,95802.98
2018-02-06T22:17:35.099Z,95798.50
2018-02-06T22:20:04.285Z,95803.52
2018-02-06T22:22:30.261Z,95806.22
2018-02-06T22:25:00.001Z,95808.08
2018-02-06T22:27:25.920Z,95810.98
2018-02-06T22:29:51.889Z,95809.55
2018-02-06T22:32:17.804Z,95818.89
2018-02-06T22:34:43.764Z,95817.45
2018-02-06T22:37:11.071Z,95819.39
2018-02-06T22:39:36.985Z,95826.23
2018-02-06T22:42:06.328Z,95824.22
2018-02-06T22:44:32.269Z,95829.25
2018-02-06T22:47:01.497Z,95821.82
2018-02-06T22:49:27.419Z,95826.78
2018-02-06T22:51:54.903Z,95823.67
2018-02-06T22:54:20.828Z,95824.06
2018-02-06T22:56:48.796Z,95824.33
2018-02-06T22:59:14.755Z,95827.37
2018-02-06T23:01:44.275Z,95829.00
2018-02-06T23:04:10.230Z,95825.67
2018-02-06T23:06:36.130Z,95825.58
2018-02-06T23:09:02.109Z,95819.60
2018-02-06T23:11:28.019Z,95824.98
2018-02-06T23:13:56.935Z,95817.22
2018-02-06T23:16:22.875Z,95817.05
2018-02-06T23:18:50.528Z,95821.32
2018-02-06T23:21:16.501Z,95821.19
2018-02-06T23:23:45.448Z,95826.41
2018-02-06T23:26:11.377Z,95827.25
2018-02-06T23:28:40.422Z,95833.06
2018-02-06T23:31:06.303Z,95836.09
2018-02-06T23:33:35.314Z,95839.42
2018-02-06T23:36:01.258Z,95837.49
2018-02-06T23:38:30.711Z,95839.77
2018-02-06T23:40:56.678Z,95850.34
2018-02-06T23:43:22.610Z,95845.09
2018-02-06T23:45:48.564Z,95846.16
2018-02-06T23:48:14.472Z,95854.55
2018-02-06T23:50:40.422Z,95848.06
2018-02-06T23:53:06.352Z,95842.14
2018-02-06T23:55:35.668Z,95839.92
2018-02-06T23:58:01.638Z,95843.25
